createdAt,value
2022-11-23T00:01:55.620Z,0.03
2022-11-23T00:05:08.688Z,0.03
2022-11-23T00:08:20.386Z,0.03
2022-11-23T00:11:35.005Z,-0.01
2022-11-23T00:14:46.683Z,0.00
2022-11-23T00:18:00.178Z,0.05
2022-11-23T00:21:16.526Z,0.02
2022-11-23T00:24:28.373Z,0.00
2022-11-23T00:27:40.260Z,0.02
2022-11-23T00:30:56.383Z,0.06
2022-11-23T00:34:08.084Z,0.04
2022-11-23T00:37:19.893Z,0.09
2022-11-23T00:40:31.854Z,0.13
2022-11-23T00:43:43.966Z,0.14
2022-11-23T00:46:55.993Z,0.14
2022-11-23T00:50:08.066Z,0.14
2022-11-23T00:53:19.969Z,0.16
2022-11-23T00:56:31.847Z,0.16
2022-11-23T00:59:44.235Z,0.18
2022-11-23T01:02:55.930Z,0.11
2022-11-23T01:06:14.149Z,0.10
2022-11-23T01:09:26.953Z,0.07
2022-11-23T01:12:38.827Z,0.11
2022-11-23T01:15:57.560Z,0.13
2022-11-23T01:19:11.575Z,0.05
2022-11-23T01:22:24.276Z,0.15
2022-11-23T01:25:35.924Z,0.19
2022-11-23T01:28:48.186Z,0.12
2022-11-23T01:31:59.877Z,0.14
2022-11-23T01:35:13.108Z,0.13
2022-11-23T01:38:24.794Z,0.12
2022-11-23T01:41:40.975Z,0.10
2022-11-23T01:44:54.702Z,0.14
2022-11-23T01:48:07.005Z,0.04
2022-11-23T01:51:22.208Z,-0.02
2022-11-23T01:54:39.868Z,0.03
2022-11-23T01:57:52.331Z,0.11
2022-11-23T02:01:04.899Z,0.08
2022-11-23T02:04:22.898Z,0.04
2022-11-23T02:07:37.589Z,-0.02
2022-11-23T02:10:49.398Z,-0.11
2022-11-23T02:14:02.639Z,-0.09
2022-11-23T02:17:15.055Z,-0.07
2022-11-23T02:20:27.632Z,-0.09
2022-11-23T02:23:46.050Z,-0.04
2022-11-23T02:26:57.977Z,-0.17
2022-11-23T02:30:14.843Z,-0.06
2022-11-23T02:33:26.499Z,-0.08
2022-11-23T02:36:50.069Z,-0.10
2022-11-23T02:40:04.509Z,-0.05
2022-11-23T02:46:48.144Z,-0.10
2022-11-23T02:49:59.944Z,-0.04
2022-11-23T02:53:11.603Z,0.00
2022-11-23T02:56:23.311Z,-0.16
2022-11-23T02:59:35.697Z,-0.02
2022-11-23T03:02:47.713Z,0.01
2022-11-23T03:06:00.219Z,0.02
2022-11-23T03:09:12.844Z,-0.03
2022-11-23T03:12:24.491Z,-0.06
2022-11-23T03:15:36.535Z,-0.08
2022-11-23T03:18:49.353Z,-0.11
2022-11-23T03:22:01.238Z,-0.12
2022-11-23T03:25:15.660Z,-0.15
2022-11-23T03:28:29.128Z,-0.15
2022-11-23T03:31:41.260Z,-0.12
2022-11-23T03:34:54.891Z,-0.08
2022-11-23T03:38:07.152Z,0.02
2022-11-23T03:41:19.200Z,-0.02
2022-11-23T03:44:32.865Z,0.04
2022-11-23T03:47:44.634Z,0.08
2022-11-23T03:50:56.468Z,0.02
2022-11-23T03:54:08.339Z,-0.01
2022-11-23T03:57:20.099Z,0.03
2022-11-23T04:00:33.562Z,0.08
2022-11-23T04:03:45.572Z,0.06
2022-11-23T04:07:01.839Z,0.02
2022-11-23T04:10:18.963Z,0.00
2022-11-23T04:13:38.828Z,-0.05
2022-11-23T04:16:50.600Z,-0.01
2022-11-23T04:20:02.443Z,-0.02
2022-11-23T04:23:14.496Z,0.05
2022-11-23T04:26:26.739Z,0.00
2022-11-23T04:29:39.125Z,-0.01
2022-11-23T04:32:53.403Z,-0.01
2022-11-23T04:36:05.772Z,0.06
2022-11-23T04:39:19.451Z,0.04
2022-11-23T04:42:35.974Z,0.05
2022-11-23T04:45:48.893Z,0.01
2022-11-23T04:49:12.057Z,-0.06
2022-11-23T04:52:25.550Z,-0.08
2022-11-23T04:55:37.603Z,-0.05
2022-11-23T04:58:50.022Z,-0.12
2022-11-23T05:02:01.964Z,-0.06
2022-11-23T05:05:34.297Z,-0.16
2022-11-23T05:08:46.918Z,-0.12
2022-11-23T05:12:01.918Z,-0.18
2022-11-23T05:15:18.379Z,-0.14
2022-11-23T05:18:30.729Z,-0.10
2022-11-23T05:21:43.394Z,-0.15
2022-11-23T05:24:58.295Z,-0.13
2022-11-23T05:28:38.554Z,-0.05
2022-11-23T05:31:26.338Z,0.00
2022-11-23T05:34:38.559Z,-0.05
2022-11-23T05:37:51.589Z,-0.12
2022-11-23T05:41:03.389Z,-0.14
2022-11-23T05:44:16.199Z,-0.17
2022-11-23T05:47:28.148Z,-0.20
2022-11-23T05:50:40.251Z,-0.12
2022-11-23T05:54:07.678Z,-0.19
2022-11-23T05:57:24.625Z,-0.20
2022-11-23T06:00:36.807Z,-0.16
2022-11-23T06:07:30.615Z,-0.16
2022-11-23T06:10:44.760Z,-0.06
2022-11-23T06:13:56.657Z,-0.06
2022-11-23T06:17:09.007Z,-0.14
2022-11-23T06:20:29.519Z,-0.12
2022-11-23T06:23:43.115Z,-0.13
2022-11-23T06:26:55.324Z,-0.12
2022-11-23T06:30:07.934Z,-0.13
2022-11-23T06:33:20.164Z,-0.02
2022-11-23T06:36:34.304Z,-0.02
2022-11-23T06:39:46.303Z,-0.10
2022-11-23T06:43:04.086Z,0.00
2022-11-23T06:46:22.861Z,0.05
2022-11-23T06:49:35.653Z,0.08
2022-11-23T06:52:49.685Z,0.13
2022-11-23T06:56:06.000Z,0.05
2022-11-23T06:59:18.700Z,0.10
2022-11-23T07:02:30.816Z,0.09
2022-11-23T07:05:45.780Z,0.02
2022-11-23T07:09:00.127Z,-0.04
2022-11-23T07:12:15.208Z,0.00
2022-11-23T07:15:28.181Z,0.03
2022-11-23T07:18:40.526Z,0.05
2022-11-23T07:21:54.235Z,0.02
2022-11-23T07:25:06.574Z,0.08
2022-11-23T07:28:20.232Z,-0.07
2022-11-23T07:31:32.320Z,-0.03
2022-11-23T07:34:44.444Z,-0.01
2022-11-23T07:37:56.417Z,0.06
2022-11-23T07:41:08.629Z,0.01
2022-11-23T07:44:23.116Z,0.07
2022-11-23T07:47:39.389Z,0.13
2022-11-23T07:50:51.212Z,0.17
2022-11-23T07:54:03.639Z,0.18
2022-11-23T07:57:23.016Z,0.14
2022-11-23T08:00:35.897Z,0.12
2022-11-23T08:03:47.840Z,0.18
2022-11-23T08:07:02.553Z,0.23
2022-11-23T08:10:15.959Z,0.25
2022-11-23T08:13:28.547Z,0.26
2022-11-23T08:16:40.526Z,0.26
2022-11-23T08:19:52.271Z,0.29
2022-11-23T08:23:04.898Z,0.29
2022-11-23T08:26:17.064Z,0.30
2022-11-23T08:29:29.940Z,0.27
2022-11-23T08:32:42.383Z,0.35
2022-11-23T08:35:54.257Z,0.36
2022-11-23T08:39:07.605Z,0.35
2022-11-23T08:42:20.017Z,0.41
2022-11-23T08:45:33.041Z,0.41
2022-11-23T08:48:44.938Z,0.52
2022-11-23T08:51:56.901Z,0.55
2022-11-23T08:55:09.619Z,0.56
2022-11-23T08:58:21.975Z,0.63
2022-11-23T09:01:34.220Z,0.49
2022-11-23T09:04:48.325Z,0.58
2022-11-23T09:08:00.442Z,0.62
2022-11-23T09:11:17.354Z,0.58
2022-11-23T09:14:29.875Z,0.60
2022-11-23T09:17:42.379Z,0.63
2022-11-23T09:20:54.436Z,0.63
2022-11-23T09:24:06.494Z,0.71
2022-11-23T09:27:18.589Z,0.74
2022-11-23T09:30:31.007Z,0.72
2022-11-23T09:33:42.998Z,0.71
2022-11-23T09:36:54.830Z,0.67
2022-11-23T09:40:07.887Z,0.63
2022-11-23T09:43:45.189Z,0.66
2022-11-23T09:47:07.531Z,0.70
2022-11-23T09:50:26.521Z,0.80
2022-11-23T09:53:44.390Z,0.74
2022-11-23T09:57:01.863Z,0.77
2022-11-23T10:00:21.664Z,0.79
2022-11-23T10:03:34.273Z,0.70
2022-11-23T10:06:49.477Z,0.63
2022-11-23T10:10:08.650Z,0.66
2022-11-23T10:13:39.185Z,0.61
2022-11-23T10:16:57.222Z,0.72
2022-11-23T10:20:26.267Z,0.72
2022-11-23T10:23:58.832Z,0.72
2022-11-23T10:27:18.301Z,0.69
2022-11-23T10:30:30.597Z,0.71
2022-11-23T10:33:49.068Z,0.80
2022-11-23T10:37:03.500Z,0.69
2022-11-23T10:40:26.120Z,0.82
2022-11-23T10:43:43.498Z,0.91
2022-11-23T10:46:55.595Z,0.90
2022-11-23T10:50:08.150Z,0.79
2022-11-23T10:53:30.965Z,0.86
2022-11-23T10:56:46.884Z,0.88
2022-11-23T11:00:09.598Z,0.79
2022-11-23T11:03:30.519Z,0.83
2022-11-23T11:06:42.575Z,0.90
2022-11-23T11:10:00.162Z,0.88
2022-11-23T11:13:35.362Z,0.85
2022-11-23T11:16:53.497Z,0.87
2022-11-23T11:20:07.213Z,0.89
2022-11-23T11:23:25.953Z,0.93
2022-11-23T11:26:39.797Z,0.94
2022-11-23T11:29:57.994Z,0.91
2022-11-23T11:33:16.005Z,0.93
2022-11-23T11:36:30.277Z,0.97
2022-11-23T11:39:48.741Z,0.94
2022-11-23T11:43:06.776Z,0.95
2022-11-23T11:46:31.274Z,0.99
2022-11-23T11:49:44.670Z,1.00
2022-11-23T11:53:02.821Z,1.01
2022-11-23T11:56:22.758Z,1.08
2022-11-23T11:59:42.298Z,1.15
2022-11-23T12:03:08.334Z,1.19
2022-11-23T12:06:26.939Z,1.16
2022-11-23T12:09:44.984Z,1.22
2022-11-23T12:12:57.026Z,1.19
2022-11-23T12:16:15.283Z,1.16
2022-11-23T12:19:33.858Z,1.19
2022-11-23T12:22:58.733Z,1.18
2022-11-23T12:26:24.140Z,1.20
2022-11-23T12:30:03.941Z,1.20
2022-11-23T12:33:30.901Z,1.24
2022-11-23T12:37:14.377Z,1.21
2022-11-23T12:40:55.057Z,1.26
2022-11-23T12:44:33.450Z,1.29
2022-11-23T12:47:56.439Z,1.30
2022-11-23T12:51:17.662Z,1.38
2022-11-23T12:54:45.351Z,1.37
2022-11-23T12:58:06.154Z,1.37
2022-11-23T13:01:26.473Z,1.45
2022-11-23T13:04:57.568Z,1.45
2022-11-23T13:08:53.924Z,1.38
2022-11-23T13:12:36.535Z,1.39
2022-11-23T13:16:18.182Z,1.40
2022-11-23T13:19:55.239Z,1.37
2022-11-23T13:23:07.788Z,1.41
2022-11-23T13:26:25.806Z,1.43
2022-11-23T13:30:03.003Z,1.44
2022-11-23T13:33:37.295Z,1.44
2022-11-23T13:37:13.442Z,1.45
2022-11-23T13:40:28.632Z,1.44
2022-11-23T13:43:43.082Z,1.41
2022-11-23T13:47:08.826Z,1.41
2022-11-23T13:50:27.086Z,1.44
2022-11-23T13:53:43.062Z,1.38
2022-11-23T13:57:06.254Z,1.32
2022-11-23T14:00:55.650Z,1.42
2022-11-23T14:04:26.509Z,1.51
2022-11-23T14:07:46.432Z,1.42
2022-11-23T14:10:59.869Z,1.48
2022-11-23T14:14:24.627Z,1.41
2022-11-23T14:18:25.034Z,1.36
2022-11-23T14:21:43.695Z,1.41
2022-11-23T14:25:20.373Z,1.45
2022-11-23T14:28:44.107Z,1.50
2022-11-23T14:32:08.816Z,1.50
2022-11-23T14:35:37.345Z,1.40
2022-11-23T14:39:38.096Z,1.31
2022-11-23T14:42:56.442Z,1.33
2022-11-23T14:46:20.365Z,1.40
2022-11-23T14:49:32.606Z,1.36
2022-11-23T14:52:44.818Z,1.37
2022-11-23T14:55:58.069Z,1.36
2022-11-23T14:59:14.603Z,1.32
2022-11-23T15:02:29.953Z,1.37
2022-11-23T15:05:44.036Z,1.38
2022-11-23T15:09:01.570Z,1.34
2022-11-23T15:12:31.945Z,1.37
2022-11-23T15:15:44.207Z,1.40
2022-11-23T15:18:57.289Z,1.42
2022-11-23T15:22:10.106Z,1.41
2022-11-23T15:25:24.685Z,1.40
2022-11-23T15:28:40.413Z,1.38
2022-11-23T15:32:14.357Z,1.42
2022-11-23T15:35:10.815Z,1.45
2022-11-23T15:38:24.541Z,1.43
2022-11-23T15:41:38.048Z,1.34
2022-11-23T15:44:55.269Z,1.33
2022-11-23T15:48:23.704Z,1.37
2022-11-23T15:51:39.140Z,1.41
2022-11-23T15:54:51.972Z,1.42
2022-11-23T15:58:07.843Z,1.45
2022-11-23T16:01:21.543Z,1.46
2022-11-23T16:04:36.664Z,1.46
2022-11-23T16:08:00.879Z,1.39
2022-11-23T16:11:26.738Z,1.40
2022-11-23T16:14:39.452Z,1.39
2022-11-23T16:17:52.893Z,1.32
2022-11-23T16:21:08.075Z,1.26
2022-11-23T16:24:27.845Z,1.29
2022-11-23T16:27:40.721Z,1.28
2022-11-23T16:30:53.150Z,1.28
2022-11-23T16:34:05.298Z,1.31
2022-11-23T16:37:18.564Z,1.34
2022-11-23T16:40:30.813Z,1.37
2022-11-23T16:43:42.615Z,1.36
2022-11-23T16:46:54.937Z,1.35
2022-11-23T16:50:07.589Z,1.33
2022-11-23T16:53:22.345Z,1.36
2022-11-23T16:56:34.735Z,1.33
2022-11-23T16:59:46.836Z,1.38
2022-11-23T17:02:58.784Z,1.41
2022-11-23T17:06:14.328Z,1.38
2022-11-23T17:09:26.210Z,1.36
2022-11-23T17:12:38.317Z,1.23
2022-11-23T17:15:50.314Z,1.35
2022-11-23T17:19:02.425Z,1.28
2022-11-23T17:29:05.964Z,1.33
2022-11-23T17:32:20.325Z,1.31
2022-11-23T17:35:36.855Z,1.29
2022-11-23T17:38:47.507Z,1.22
2022-11-23T17:42:04.632Z,1.21
2022-11-23T17:45:15.919Z,1.24
2022-11-23T17:48:28.459Z,1.29
2022-11-23T17:51:40.415Z,1.27
2022-11-23T17:54:52.424Z,1.26
2022-11-23T17:58:04.461Z,1.35
2022-11-23T18:01:20.810Z,1.35
2022-11-23T18:04:32.621Z,1.33
2022-11-23T18:07:45.500Z,1.36
2022-11-23T18:10:59.376Z,1.35
2022-11-23T18:14:11.511Z,1.35
2022-11-23T18:17:24.116Z,1.35
2022-11-23T18:20:35.809Z,1.31
2022-11-23T18:23:49.244Z,1.36
2022-11-23T18:27:01.233Z,1.35
2022-11-23T18:30:15.513Z,1.34
2022-11-23T18:33:27.561Z,1.33
2022-11-23T18:36:39.703Z,1.39
2022-11-23T18:39:51.926Z,1.37
2022-11-23T18:43:03.635Z,1.35
2022-11-23T18:46:19.412Z,1.27
2022-11-23T18:49:32.364Z,1.29
2022-11-23T18:52:44.834Z,1.30
2022-11-23T18:56:00.382Z,1.32
2022-11-23T18:59:23.985Z,1.30
2022-11-23T19:02:25.986Z,1.33
2022-11-23T19:05:40.214Z,1.33
2022-11-23T19:08:56.926Z,1.32
2022-11-23T19:12:09.951Z,1.32
2022-11-23T19:15:22.173Z,1.21
2022-11-23T19:18:34.826Z,1.26
2022-11-23T19:21:47.249Z,1.29
2022-11-23T19:24:59.432Z,1.24
2022-11-23T19:28:11.223Z,1.25
2022-11-23T19:31:25.538Z,1.23
2022-11-23T19:34:37.862Z,1.12
2022-11-23T19:37:51.863Z,1.25
2022-11-23T19:41:03.849Z,1.24
2022-11-23T19:44:17.049Z,1.24
2022-11-23T19:47:29.164Z,1.24
2022-11-23T19:50:41.049Z,1.18
2022-11-23T19:53:54.907Z,1.18
2022-11-23T19:57:06.797Z,1.20
2022-11-23T20:00:21.858Z,1.17
2022-11-23T20:03:33.865Z,1.22
2022-11-23T20:06:47.815Z,1.27
2022-11-23T20:09:59.805Z,1.25
2022-11-23T20:13:11.851Z,1.26
2022-11-23T20:16:25.709Z,1.24
2022-11-23T20:19:37.966Z,1.20
2022-11-23T20:22:50.185Z,1.19
2022-11-23T20:26:04.876Z,1.19
2022-11-23T20:29:17.928Z,1.25
2022-11-23T20:32:29.975Z,1.27
2022-11-23T20:35:42.401Z,1.27
2022-11-23T20:38:55.649Z,1.28
2022-11-23T20:42:08.266Z,1.28
2022-11-23T20:45:20.651Z,1.30
2022-11-23T20:48:32.535Z,1.32
2022-11-23T20:51:44.635Z,1.20
2022-11-23T20:54:56.615Z,1.18
2022-11-23T20:58:09.265Z,1.23
2022-11-23T21:01:22.645Z,1.23
2022-11-23T21:04:35.202Z,1.20
2022-11-23T21:07:47.361Z,1.24
2022-11-23T21:11:28.244Z,1.18
2022-11-23T21:14:40.191Z,1.20
2022-11-23T21:17:52.301Z,1.17
2022-11-23T21:21:04.260Z,1.17
2022-11-23T21:24:17.269Z,1.18
2022-11-23T21:27:29.221Z,1.14
2022-11-23T21:30:43.060Z,1.18
2022-11-23T21:33:55.684Z,1.11
2022-11-23T21:37:07.682Z,1.15
2022-11-23T21:40:21.001Z,1.15
2022-11-23T21:43:32.953Z,1.16
2022-11-23T21:46:46.116Z,1.20
2022-11-23T21:50:05.789Z,1.17
2022-11-23T21:53:17.729Z,1.18
2022-11-23T21:56:30.291Z,1.17
2022-11-23T21:59:42.275Z,1.12
2022-11-23T22:02:55.359Z,1.14
2022-11-23T22:06:08.159Z,1.15
2022-11-23T22:09:21.162Z,1.11
2022-11-23T22:12:44.215Z,1.11
2022-11-23T22:15:56.889Z,1.10
2022-11-23T22:19:10.675Z,1.16
2022-11-23T22:22:23.045Z,1.16
2022-11-23T22:25:35.436Z,1.15
2022-11-23T22:28:49.763Z,1.19
2022-11-23T22:32:01.740Z,1.19
2022-11-23T22:35:15.698Z,1.16
2022-11-23T22:38:40.687Z,1.18
2022-11-23T22:41:52.831Z,1.12
2022-11-23T22:48:48.057Z,1.15
2022-11-23T22:52:00.202Z,1.15
2022-11-23T22:55:13.668Z,1.18
2022-11-23T23:02:06.960Z,1.16
2022-11-23T23:05:20.463Z,1.15
2022-11-23T23:08:34.280Z,1.16
2022-11-23T23:11:53.937Z,1.12
2022-11-23T23:15:18.870Z,1.14
2022-11-23T23:18:32.230Z,1.19
2022-11-23T23:21:44.593Z,1.17
2022-11-23T23:24:56.499Z,1.16
2022-11-23T23:28:09.835Z,1.17
2022-11-23T23:31:23.243Z,1.12
2022-11-23T23:34:35.396Z,1.06
2022-11-23T23:41:36.743Z,1.06
2022-11-23T23:44:50.991Z,1.12
2022-11-23T23:48:04.876Z,1.14
2022-11-23T23:51:19.866Z,1.11
2022-11-23T23:54:32.202Z,1.11
2022-11-23T23:57:44.738Z,1.16
